Terminal Aerodrome Forecast
Issued by NWS

Home | Current Version | Previous Version | Text Only | Print | Product List | Glossary On
Versions: 1 2 3 4 5 6 7 8 9 10 11 12 13 14 15 16 17 18 19 20 21 22 23 24 25 26 27 28 29 30 31 32 33 34
000
FTUS45 KBOU 232339
TAFAPA
TAF
KAPA 232339Z 2400/2424 23013G22KT P6SM FEW090 SCT140 BKN220
     FM240100 31012G20KT P6SM FEW090 SCT120 BKN150
     FM240230 36020G30KT P6SM VCSH SCT040 OVC090
     FM240400 01025G38KT 3SM -RA SCT012 OVC025
      TEMPO 2405/2408 1 1/2SM -RASN BR BKN009
     FM240800 36022G40KT 3/4SM -SN BLSN BR OVC005
      TEMPO 2411/2415 1/4SM +SN BLSN VV003
     FM241600 35022G35KT 3SM -SN BR OVC015
     FM241900 03012KT P6SM VCSH SCT025 BKN060
     FM242200 09008KT P6SM FEW040 SCT100=

USA.gov is the U.S. government's official web portal to all federal, state and local government web resources and services.